KCDR/CDR METAR and TAF weather

Enter ICAO airport designator
Station Type Date Time Source
KCDR METAR 2018/06/25 16:53 UTC NOAA

KCDR 251653Z AUTO VRB03KT 10SM SCT037 22/13 A2999 RMK AO2 SLP140 T02220133


Station Type Date Time Source
KCDR Decoded METAR 2018/06/25 16:53 UTC NOAA

CHADRON MUNICIPAL AIRPORT, NE, United States (KCDR) 42-50N 103-06W 1010M
Jun 25, 2018 - 12:53 PM EDT / 2018.06.25 1653 UTC
Wind: Variable at 3 MPH (3 KT):0
Visibility: 10 mile(s):0
Sky conditions: partly cloudy
Temperature: 72.0 F (22.2 C)
Dew Point: 55.9 F (13.3 C)
Relative Humidity: 57%
Pressure (altimeter): 29.99 in. Hg (1015 hPa)
ob: KCDR 251653Z AUTO VRB03KT 10SM SCT037 22/13 A2999 RMK AO2 SLP140 T02220133
cycle: 17

Station Type Date Time Source
KCDR TAF 2018/06/25 18:22 UTC NOAA

TAF KCDR 251720Z 2518/2618 32005KT P6SM VCSH SCT025 BKN040
FM252100 05006KT P6SM SCT120
FM260300 21005KT P6SM SKC


Example: see airport list